sensor_id;sensor_type;location;lat;lon;timestamp;pressure;altitude;pressure_sealevel;temperature;humidity
4012;BME280;2020;48.682;9.024;2022-10-16T00:00:43;96342.44;;;13.92;100.00
4012;BME280;2020;48.682;9.024;2022-10-16T00:03:09;96345.22;;;13.91;100.00
4012;BME280;2020;48.682;9.024;2022-10-16T00:05:41;96352.91;;;13.92;100.00
4012;BME280;2020;48.682;9.024;2022-10-16T00:08:08;96349.63;;;13.90;100.00
4012;BME280;2020;48.682;9.024;2022-10-16T00:10:35;96346.38;;;13.88;100.00
4012;BME280;2020;48.682;9.024;2022-10-16T00:13:00;96337.47;;;13.82;100.00
4012;BME280;2020;48.682;9.024;2022-10-16T00:15:26;96341.50;;;13.85;100.00
4012;BME280;2020;48.682;9.024;2022-10-16T00:17:51;96353.97;;;13.83;100.00
4012;BME280;2020;48.682;9.024;2022-10-16T00:20:16;96357.91;;;13.79;100.00
4012;BME280;2020;48.682;9.024;2022-10-16T00:22:41;96359.00;;;13.69;100.00
4012;BME280;2020;48.682;9.024;2022-10-16T00:25:07;96352.13;;;13.68;100.00
4012;BME280;2020;48.682;9.024;2022-10-16T00:27:33;96338.91;;;13.70;100.00
4012;BME280;2020;48.682;9.024;2022-10-16T00:29:58;96343.28;;;13.69;100.00
4012;BME280;2020;48.682;9.024;2022-10-16T00:32:23;96346.53;;;13.71;100.00
4012;BME280;2020;48.682;9.024;2022-10-16T00:34:49;96342.66;;;13.67;100.00
4012;BME280;2020;48.682;9.024;2022-10-16T00:37:14;96343.50;;;13.68;100.00
4012;BME280;2020;48.682;9.024;2022-10-16T00:39:39;96347.72;;;13.69;100.00
4012;BME280;2020;48.682;9.024;2022-10-16T00:42:05;96341.66;;;13.68;100.00
4012;BME280;2020;48.682;9.024;2022-10-16T00:47:30;96340.03;;;13.67;100.00
4012;BME280;2020;48.682;9.024;2022-10-16T00:50:21;96340.69;;;13.69;100.00
4012;BME280;2020;48.682;9.024;2022-10-16T00:52:49;96342.03;;;13.65;100.00
4012;BME280;2020;48.682;9.024;2022-10-16T00:55:16;96348.88;;;13.66;100.00
4012;BME280;2020;48.682;9.024;2022-10-16T00:57:42;96353.75;;;13.69;100.00
4012;BME280;2020;48.682;9.024;2022-10-16T01:00:10;96357.38;;;13.68;100.00
4012;BME280;2020;48.682;9.024;2022-10-16T01:02:36;96357.72;;;13.65;100.00
4012;BME280;2020;48.682;9.024;2022-10-16T01:05:02;96355.75;;;13.67;100.00
4012;BME280;2020;48.682;9.024;2022-10-16T01:07:58;96359.63;;;13.71;100.00
4012;BME280;2020;48.682;9.024;2022-10-16T01:13:07;96369.91;;;13.73;100.00
4012;BME280;2020;48.682;9.024;2022-10-16T01:15:59;96382.38;;;13.71;100.00
4012;BME280;2020;48.682;9.024;2022-10-16T01:18:34;96381.88;;;13.67;100.00
4012;BME280;2020;48.682;9.024;2022-10-16T01:21:03;96365.41;;;13.67;100.00
4012;BME280;2020;48.682;9.024;2022-10-16T01:29:19;96367.25;;;13.58;100.00
4012;BME280;2020;48.682;9.024;2022-10-16T01:31:50;96366.63;;;13.56;100.00
4012;BME280;2020;48.682;9.024;2022-10-16T01:34:22;96363.72;;;13.51;100.00
4012;BME280;2020;48.682;9.024;2022-10-16T01:36:55;96353.91;;;13.53;100.00
4012;BME280;2020;48.682;9.024;2022-10-16T01:39:24;96363.56;;;13.52;100.00
4012;BME280;2020;48.682;9.024;2022-10-16T01:42:16;96354.72;;;13.53;100.00
4012;BME280;2020;48.682;9.024;2022-10-16T01:44:46;96346.69;;;13.55;100.00
4012;BME280;2020;48.682;9.024;2022-10-16T01:47:12;96354.53;;;13.55;100.00
4012;BME280;2020;48.682;9.024;2022-10-16T01:49:39;96354.19;;;13.58;100.00
4012;BME280;2020;48.682;9.024;2022-10-16T01:52:10;96354.81;;;13.60;100.00
4012;BME280;2020;48.682;9.024;2022-10-16T01:54:40;96354.19;;;13.58;100.00
4012;BME280;2020;48.682;9.024;2022-10-16T01:57:07;96342.28;;;13.55;100.00
4012;BME280;2020;48.682;9.024;2022-10-16T01:59:35;96341.13;;;13.58;100.00
4012;BME280;2020;48.682;9.024;2022-10-16T02:02:06;96335.88;;;13.58;100.00
4012;BME280;2020;48.682;9.024;2022-10-16T02:04:36;96331.56;;;13.65;99.79
4012;BME280;2020;48.682;9.024;2022-10-16T02:07:03;96343.28;;;13.69;99.52
4012;BME280;2020;48.682;9.024;2022-10-16T02:09:30;96348.16;;;13.72;99.31
4012;BME280;2020;48.682;9.024;2022-10-16T02:11:59;96354.31;;;13.80;98.79
4012;BME280;2020;48.682;9.024;2022-10-16T02:14:28;96354.31;;;13.80;98.80
4012;BME280;2020;48.682;9.024;2022-10-16T02:16:53;96357.56;;;13.82;98.42
4012;BME280;2020;48.682;9.024;2022-10-16T02:19:20;96360.00;;;13.83;98.93
4012;BME280;2020;48.682;9.024;2022-10-16T02:21:50;96366.69;;;13.86;98.62
4012;BME280;2020;48.682;9.024;2022-10-16T02:24:39;96367.31;;;13.88;98.33
4012;BME280;2020;48.682;9.024;2022-10-16T02:27:16;96362.06;;;13.88;98.19
4012;BME280;2020;48.682;9.024;2022-10-16T02:29:47;96354.06;;;13.89;97.69
4012;BME280;2020;48.682;9.024;2022-10-16T02:32:17;96344.75;;;13.87;98.19
4012;BME280;2020;48.682;9.024;2022-10-16T02:34:45;96340.88;;;13.83;98.98
4012;BME280;2020;48.682;9.024;2022-10-16T02:37:12;96338.97;;;13.77;99.40
4012;BME280;2020;48.682;9.024;2022-10-16T02:39:38;96342.59;;;13.75;99.41
4012;BME280;2020;48.682;9.024;2022-10-16T02:42:10;96341.78;;;13.75;99.58
4012;BME280;2020;48.682;9.024;2022-10-16T02:44:35;96351.78;;;13.71;99.96
4012;BME280;2020;48.682;9.024;2022-10-16T02:47:00;96351.78;;;13.71;99.67
4012;BME280;2020;48.682;9.024;2022-10-16T02:49:26;96356.66;;;13.74;99.35
4012;BME280;2020;48.682;9.024;2022-10-16T02:51:51;96357.28;;;13.77;99.00
4012;BME280;2020;48.682;9.024;2022-10-16T02:54:16;96363.50;;;13.75;99.39
4012;BME280;2020;48.682;9.024;2022-10-16T02:56:41;96357.00;;;13.71;99.65
4012;BME280;2020;48.682;9.024;2022-10-16T02:59:07;96362.59;;;13.68;99.92
4012;BME280;2020;48.682;9.024;2022-10-16T03:01:32;96365.22;;;13.68;99.51
4012;BME280;2020;48.682;9.024;2022-10-16T03:03:57;96366.47;;;13.72;99.66
4012;BME280;2020;48.682;9.024;2022-10-16T03:06:22;96364.34;;;13.76;98.29
4012;BME280;2020;48.682;9.024;2022-10-16T03:08:48;96364.69;;;13.73;99.01
4012;BME280;2020;48.682;9.024;2022-10-16T03:11:13;96357.00;;;13.71;99.19
4012;BME280;2020;48.682;9.024;2022-10-16T03:13:39;96354.22;;;13.73;98.78
4012;BME280;2020;48.682;9.024;2022-10-16T03:16:04;96347.53;;;13.70;98.96
4012;BME280;2020;48.682;9.024;2022-10-16T03:18:29;96353.41;;;13.72;98.93
4012;BME280;2020;48.682;9.024;2022-10-16T03:20:54;96355.03;;;13.73;98.55
4012;BME280;2020;48.682;9.024;2022-10-16T03:23:20;96364.22;;;13.69;99.59
4012;BME280;2020;48.682;9.024;2022-10-16T03:25:45;96358.19;;;13.69;98.98
4012;BME280;2020;48.682;9.024;2022-10-16T03:28:10;96364.22;;;13.69;99.89
4012;BME280;2020;48.682;9.024;2022-10-16T03:30:36;96360.97;;;13.67;99.41
4012;BME280;2020;48.682;9.024;2022-10-16T03:33:01;96366.66;;;13.71;98.54
4012;BME280;2020;48.682;9.024;2022-10-16T03:35:27;96371.06;;;13.70;98.52
4012;BME280;2020;48.682;9.024;2022-10-16T03:37:52;96357.38;;;13.68;98.99
4012;BME280;2020;48.682;9.024;2022-10-16T03:40:18;96362.25;;;13.71;98.46
4012;BME280;2020;48.682;9.024;2022-10-16T03:42:43;96363.59;;;13.67;99.23
4012;BME280;2020;48.682;9.024;2022-10-16T03:45:09;96363.78;;;13.66;99.58
4012;BME280;2020;48.682;9.024;2022-10-16T03:47:35;96374.59;;;13.63;99.78
4012;BME280;2020;48.682;9.024;2022-10-16T03:50:00;96377.38;;;13.61;99.68
4012;BME280;2020;48.682;9.024;2022-10-16T03:52:25;96381.25;;;13.65;99.21
4012;BME280;2020;48.682;9.024;2022-10-16T03:54:51;96382.59;;;13.61;99.78
4012;BME280;2020;48.682;9.024;2022-10-16T03:57:16;96369.81;;;13.66;98.80
4012;BME280;2020;48.682;9.024;2022-10-16T03:59:42;96374.94;;;13.59;99.02
4012;BME280;2020;48.682;9.024;2022-10-16T04:02:07;96375.03;;;13.66;98.87
4012;BME280;2020;48.682;9.024;2022-10-16T04:04:32;96371.78;;;13.64;99.03
4012;BME280;2020;48.682;9.024;2022-10-16T04:06:58;96379.00;;;13.62;99.52
4012;BME280;2020;48.682;9.024;2022-10-16T04:09:23;96375.09;;;13.58;99.56
4012;BME280;2020;48.682;9.024;2022-10-16T04:11:48;96369.06;;;13.57;100.00
4012;BME280;2020;48.682;9.024;2022-10-16T04:14:13;96375.53;;;13.47;100.00
4012;BME280;2020;48.682;9.024;2022-10-16T04:16:39;96370.66;;;13.43;100.00
4012;BME280;2020;48.682;9.024;2022-10-16T04:19:04;96374.25;;;13.42;100.00
4012;BME280;2020;48.682;9.024;2022-10-16T04:21:29;96374.75;;;13.38;100.00
4012;BME280;2020;48.682;9.024;2022-10-16T04:23:54;96371.31;;;13.37;100.00
4012;BME280;2020;48.682;9.024;2022-10-16T04:26:20;96367.72;;;13.38;100.00
4012;BME280;2020;48.682;9.024;2022-10-16T04:28:45;96377.88;;;13.33;100.00
4012;BME280;2020;48.682;9.024;2022-10-16T04:31:10;96376.09;;;13.34;100.00
4012;BME280;2020;48.682;9.024;2022-10-16T04:33:36;96370.75;;;13.27;100.00
4012;BME280;2020;48.682;9.024;2022-10-16T04:36:02;96368.41;;;13.32;100.00
4012;BME280;2020;48.682;9.024;2022-10-16T04:38:28;96383.66;;;13.28;100.00
4012;BME280;2020;48.682;9.024;2022-10-16T04:40:53;96380.84;;;13.30;100.00
4012;BME280;2020;48.682;9.024;2022-10-16T04:43:19;96382.47;;;13.31;100.00
4012;BME280;2020;48.682;9.024;2022-10-16T04:45:44;96379.22;;;13.29;100.00
4012;BME280;2020;48.682;9.024;2022-10-16T04:48:09;96391.31;;;13.30;100.00
4012;BME280;2020;48.682;9.024;2022-10-16T04:50:35;96384.09;;;13.32;100.00
4012;BME280;2020;48.682;9.024;2022-10-16T04:53:00;96386.56;;;13.34;100.00
4012;BME280;2020;48.682;9.024;2022-10-16T04:55:25;96398.44;;;13.36;100.00
4012;BME280;2020;48.682;9.024;2022-10-16T04:57:50;96404.66;;;13.35;100.00
4012;BME280;2020;48.682;9.024;2022-10-16T05:00:16;96403.56;;;13.29;100.00
4012;BME280;2020;48.682;9.024;2022-10-16T05:02:41;96406.00;;;13.31;100.00
4012;BME280;2020;48.682;9.024;2022-10-16T05:05:07;96405.72;;;13.26;100.00
4012;BME280;2020;48.682;9.024;2022-10-16T05:07:32;96402.47;;;13.24;100.00
4012;BME280;2020;48.682;9.024;2022-10-16T05:09:57;96415.81;;;13.29;100.00
4012;BME280;2020;48.682;9.024;2022-10-16T05:12:23;96404.09;;;13.25;100.00
4012;BME280;2020;48.682;9.024;2022-10-16T05:14:48;96405.75;;;13.18;100.00
4012;BME280;2020;48.682;9.024;2022-10-16T05:17:13;96394.84;;;13.14;100.00
4012;BME280;2020;48.682;9.024;2022-10-16T05:19:38;96393.41;;;13.11;100.00
4012;BME280;2020;48.682;9.024;2022-10-16T05:22:04;96393.75;;;13.08;100.00
4012;BME280;2020;48.682;9.024;2022-10-16T05:24:29;96396.34;;;13.08;100.00
4012;BME280;2020;48.682;9.024;2022-10-16T05:26:54;96396.66;;;13.13;100.00
4012;BME280;2020;48.682;9.024;2022-10-16T05:29:20;96403.50;;;13.14;100.00
4012;BME280;2020;48.682;9.024;2022-10-16T05:31:45;96407.44;;;13.10;100.00
4012;BME280;2020;48.682;9.024;2022-10-16T05:34:10;96410.69;;;13.12;100.00
4012;BME280;2020;48.682;9.024;2022-10-16T05:36:36;96423.47;;;13.07;100.00
4012;BME280;2020;48.682;9.024;2022-10-16T05:39:02;96421.84;;;13.06;100.00
4012;BME280;2020;48.682;9.024;2022-10-16T05:41:27;96419.91;;;13.00;100.00
4012;BME280;2020;48.682;9.024;2022-10-16T05:43:53;96415.38;;;12.94;100.00
4012;BME280;2020;48.682;9.024;2022-10-16T05:46:19;96418.03;;;12.85;100.00
4012;BME280;2020;48.682;9.024;2022-10-16T05:48:44;96428.78;;;12.91;100.00
4012;BME280;2020;48.682;9.024;2022-10-16T05:51:12;96427.44;;;12.95;100.00
4012;BME280;2020;48.682;9.024;2022-10-16T05:53:39;96427.16;;;12.90;100.00
4012;BME280;2020;48.682;9.024;2022-10-16T05:56:05;96428.44;;;12.94;100.00
4012;BME280;2020;48.682;9.024;2022-10-16T05:58:33;96438.19;;;13.00;100.00
4012;BME280;2020;48.682;9.024;2022-10-16T06:01:03;96434.59;;;13.01;100.00
4012;BME280;2020;48.682;9.024;2022-10-16T06:03:29;96445.06;;;13.01;100.00
4012;BME280;2020;48.682;9.024;2022-10-16T06:05:54;96444.38;;;13.07;100.00
4012;BME280;2020;48.682;9.024;2022-10-16T06:08:21;96439.44;;;13.12;100.00
4012;BME280;2020;48.682;9.024;2022-10-16T06:10:47;96445.31;;;13.14;100.00
4012;BME280;2020;48.682;9.024;2022-10-16T06:13:13;96446.59;;;13.19;100.00
4012;BME280;2020;48.682;9.024;2022-10-16T06:15:42;96444.41;;;13.30;100.00
4012;BME280;2020;48.682;9.024;2022-10-16T06:18:09;96439.69;;;13.57;100.00
4012;BME280;2020;48.682;9.024;2022-10-16T06:20:34;96452.13;;;13.55;99.87
4012;BME280;2020;48.682;9.024;2022-10-16T06:23:00;96455.25;;;13.51;100.00
4012;BME280;2020;48.682;9.024;2022-10-16T06:25:25;96446.41;;;13.52;100.00
4012;BME280;2020;48.682;9.024;2022-10-16T06:27:50;96455.59;;;13.48;100.00
4012;BME280;2020;48.682;9.024;2022-10-16T06:30:16;96446.75;;;13.49;100.00
4012;BME280;2020;48.682;9.024;2022-10-16T06:32:41;96447.09;;;13.45;100.00
4012;BME280;2020;48.682;9.024;2022-10-16T06:35:06;96452.34;;;13.45;100.00
4012;BME280;2020;48.682;9.024;2022-10-16T06:37:32;96458.03;;;13.49;100.00
4012;BME280;2020;48.682;9.024;2022-10-16T06:39:57;96466.41;;;13.68;100.00
4012;BME280;2020;48.682;9.024;2022-10-16T06:42:22;96470.56;;;14.00;98.86
4012;BME280;2020;48.682;9.024;2022-10-16T06:44:48;96479.81;;;14.26;98.61
4012;BME280;2020;48.682;9.024;2022-10-16T06:47:13;96473.31;;;14.22;97.42
4012;BME280;2020;48.682;9.024;2022-10-16T06:49:38;96480.25;;;14.15;97.05
4012;BME280;2020;48.682;9.024;2022-10-16T06:52:03;96481.97;;;14.08;97.68
4012;BME280;2020;48.682;9.024;2022-10-16T06:54:30;96487.91;;;14.01;98.59
4012;BME280;2020;48.682;9.024;2022-10-16T06:56:55;96490.50;;;14.01;98.31
4012;BME280;2020;48.682;9.024;2022-10-16T06:59:21;96487.41;;;13.98;97.82
4012;BME280;2020;48.682;9.024;2022-10-16T07:01:46;96485.63;;;13.98;96.82
4012;BME280;2020;48.682;9.024;2022-10-16T07:04:12;96490.69;;;14.00;98.60
4012;BME280;2020;48.682;9.024;2022-10-16T07:06:37;96502.41;;;14.04;99.44
4012;BME280;2020;48.682;9.024;2022-10-16T07:09:05;96514.06;;;14.01;98.63
4012;BME280;2020;48.682;9.024;2022-10-16T07:11:31;96515.69;;;14.02;99.23
4012;BME280;2020;48.682;9.024;2022-10-16T07:13:56;96517.31;;;14.03;99.63
4012;BME280;2020;48.682;9.024;2022-10-16T07:16:24;96520.56;;;14.06;98.57
4012;BME280;2020;48.682;9.024;2022-10-16T07:18:49;96529.41;;;14.04;98.53
4012;BME280;2020;48.682;9.024;2022-10-16T07:21:19;96535.44;;;14.05;99.34
4012;BME280;2020;48.682;9.024;2022-10-16T07:23:49;96532.66;;;14.07;98.71
4012;BME280;2020;48.682;9.024;2022-10-16T07:26:14;96541.16;;;14.09;98.97
4012;BME280;2020;48.682;9.024;2022-10-16T07:28:42;96540.81;;;14.12;99.02
4012;BME280;2020;48.682;9.024;2022-10-16T07:31:10;96545.22;;;14.11;97.06
4012;BME280;2020;48.682;9.024;2022-10-16T07:33:37;96539.19;;;14.11;97.60
4012;BME280;2020;48.682;9.024;2022-10-16T07:36:03;96539.81;;;14.13;97.16
4012;BME280;2020;48.682;9.024;2022-10-16T07:38:29;96537.19;;;14.13;98.61
4012;BME280;2020;48.682;9.024;2022-10-16T07:40:58;96545.69;;;14.15;97.22
4012;BME280;2020;48.682;9.024;2022-10-16T07:43:25;96552.19;;;14.19;98.04
4012;BME280;2020;48.682;9.024;2022-10-16T07:45:51;96560.69;;;14.21;97.99
4012;BME280;2020;48.682;9.024;2022-10-16T07:48:17;96557.53;;;14.26;96.48
4012;BME280;2020;48.682;9.024;2022-10-16T07:50:43;96560.63;;;14.29;95.77
4012;BME280;2020;48.682;9.024;2022-10-16T07:53:09;96568.47;;;14.29;96.27
4012;BME280;2020;48.682;9.024;2022-10-16T07:55:34;96566.50;;;14.31;96.29
4012;BME280;2020;48.682;9.024;2022-10-16T07:57:59;96567.75;;;14.36;95.12
4012;BME280;2020;48.682;9.024;2022-10-16T08:00:25;96568.91;;;14.33;95.22
4012;BME280;2020;48.682;9.024;2022-10-16T08:02:50;96565.78;;;14.38;95.71
4012;BME280;2020;48.682;9.024;2022-10-16T08:05:15;96566.44;;;14.40;95.54
4012;BME280;2020;48.682;9.024;2022-10-16T08:07:40;96567.06;;;14.42;96.02
4012;BME280;2020;48.682;9.024;2022-10-16T08:10:06;96573.56;;;14.46;94.46
4012;BME280;2020;48.682;9.024;2022-10-16T08:12:31;96580.88;;;14.51;94.90
4012;BME280;2020;48.682;9.024;2022-10-16T08:14:57;96580.63;;;14.60;94.74
4012;BME280;2020;48.682;9.024;2022-10-16T08:17:22;96579.13;;;14.66;94.07
4012;BME280;2020;48.682;9.024;2022-10-16T08:19:47;96573.66;;;14.76;93.61
4012;BME280;2020;48.682;9.024;2022-10-16T08:22:14;96572.22;;;14.88;92.94
4012;BME280;2020;48.682;9.024;2022-10-16T08:24:40;96571.13;;;14.98;92.16
4012;BME280;2020;48.682;9.024;2022-10-16T08:27:06;96576.00;;;15.01;90.56
4012;BME280;2020;48.682;9.024;2022-10-16T08:29:32;96574.38;;;15.00;90.66
4012;BME280;2020;48.682;9.024;2022-10-16T08:31:57;96580.88;;;15.04;89.92
4012;BME280;2020;48.682;9.024;2022-10-16T08:34:22;96581.16;;;15.09;91.40
4012;BME280;2020;48.682;9.024;2022-10-16T08:36:47;96592.09;;;15.13;90.78
4012;BME280;2020;48.682;9.024;2022-10-16T08:39:13;96589.38;;;15.06;89.94
4012;BME280;2020;48.682;9.024;2022-10-16T08:44:34;96589.47;;;15.13;90.61
4012;BME280;2020;48.682;9.024;2022-10-16T08:47:16;96591.84;;;15.08;89.66
4012;BME280;2020;48.682;9.024;2022-10-16T08:50:30;96596.72;;;15.11;90.47
4012;BME280;2020;48.682;9.024;2022-10-16T08:52:40;96607.28;;;15.17;91.35
4012;BME280;2020;48.682;9.024;2022-10-16T08:55:16;96604.91;;;15.23;90.12
4012;BME280;2020;48.682;9.024;2022-10-16T08:57:44;96607.13;;;15.34;91.14
4012;BME280;2020;48.682;9.024;2022-10-16T09:00:13;96614.53;;;15.45;91.47
4012;BME280;2020;48.682;9.024;2022-10-16T09:08:30;96614.28;;;15.92;88.60
4012;BME280;2020;48.682;9.024;2022-10-16T09:11:06;96616.03;;;16.06;88.67
4012;BME280;2020;48.682;9.024;2022-10-16T09:16:27;96613.91;;;16.38;84.57
4012;BME280;2020;48.682;9.024;2022-10-16T09:21:41;96623.94;;;17.42;81.64
4012;BME280;2020;48.682;9.024;2022-10-16T09:24:15;96618.00;;;17.68;80.45
4012;BME280;2020;48.682;9.024;2022-10-16T09:26:42;96613.28;;;18.06;80.57
4012;BME280;2020;48.682;9.024;2022-10-16T09:29:11;96623.47;;;18.29;77.41
4012;BME280;2020;48.682;9.024;2022-10-16T09:31:37;96628.31;;;18.32;76.78
4012;BME280;2020;48.682;9.024;2022-10-16T09:34:04;96627.75;;;17.81;76.31
4012;BME280;2020;48.682;9.024;2022-10-16T09:36:38;96621.56;;;17.47;77.28
4012;BME280;2020;48.682;9.024;2022-10-16T09:39:07;96624.38;;;17.46;80.62
4012;BME280;2020;48.682;9.024;2022-10-16T09:41:37;96624.63;;;17.58;80.60
4012;BME280;2020;48.682;9.024;2022-10-16T09:44:16;96627.41;;;17.98;78.58
4012;BME280;2020;48.682;9.024;2022-10-16T09:46:43;96633.13;;;18.02;78.20
4012;BME280;2020;48.682;9.024;2022-10-16T09:49:23;96628.88;;;18.14;79.33
4012;BME280;2020;48.682;9.024;2022-10-16T09:51:49;96640.09;;;18.36;79.13
4012;BME280;2020;48.682;9.024;2022-10-16T09:54:17;96634.00;;;18.42;78.03
4012;BME280;2020;48.682;9.024;2022-10-16T09:56:43;96636.88;;;18.68;75.31
4012;BME280;2020;48.682;9.024;2022-10-16T09:59:20;96628.34;;;18.73;73.51
4012;BME280;2020;48.682;9.024;2022-10-16T10:01:48;96632.00;;;18.85;69.58
4012;BME280;2020;48.682;9.024;2022-10-16T10:04:16;96633.22;;;19.03;71.36
4012;BME280;2020;48.682;9.024;2022-10-16T10:06:47;96638.47;;;19.29;70.71
4012;BME280;2020;48.682;9.024;2022-10-16T10:12:00;96639.63;;;20.38;70.36
4012;BME280;2020;48.682;9.024;2022-10-16T10:14:44;96636.09;;;20.19;67.71
4012;BME280;2020;48.682;9.024;2022-10-16T10:17:25;96646.34;;;20.66;67.16
4012;BME280;2020;48.682;9.024;2022-10-16T10:19:53;96636.69;;;20.53;65.94
4012;BME280;2020;48.682;9.024;2022-10-16T10:22:29;96639.69;;;20.25;64.80
4012;BME280;2020;48.682;9.024;2022-10-16T10:33:40;96640.38;;;19.68;67.49
4012;BME280;2020;48.682;9.024;2022-10-16T10:38:27;96639.59;;;19.61;65.92
4012;BME280;2020;48.682;9.024;2022-10-16T10:41:04;96648.53;;;19.53;64.19
4012;BME280;2020;48.682;9.024;2022-10-16T10:43:56;96652.59;;;19.55;66.03
4012;BME280;2020;48.682;9.024;2022-10-16T10:46:35;96645.31;;;19.44;65.19
4012;BME280;2020;48.682;9.024;2022-10-16T10:52:24;96644.81;;;19.67;64.87
4012;BME280;2020;48.682;9.024;2022-10-16T11:00:23;96649.00;;;20.34;63.38
4012;BME280;2020;48.682;9.024;2022-10-16T11:08:03;96637.91;;;21.27;64.61
4012;BME280;2020;48.682;9.024;2022-10-16T11:11:10;96639.44;;;21.16;63.63
4012;BME280;2020;48.682;9.024;2022-10-16T11:14:00;96646.38;;;20.92;62.77
4012;BME280;2020;48.682;9.024;2022-10-16T11:16:32;96643.78;;;20.85;65.36
4012;BME280;2020;48.682;9.024;2022-10-16T11:19:41;96644.97;;;20.89;62.65
4012;BME280;2020;48.682;9.024;2022-10-16T11:22:38;96640.72;;;21.32;66.57
4012;BME280;2020;48.682;9.024;2022-10-16T11:30:28;96641.66;;;20.94;60.72
4012;BME280;2020;48.682;9.024;2022-10-16T11:36:08;96638.13;;;21.25;62.59
4012;BME280;2020;48.682;9.024;2022-10-16T11:38:48;96638.41;;;21.36;62.43
4012;BME280;2020;48.682;9.024;2022-10-16T11:41:26;96637.91;;;21.45;58.25
4012;BME280;2020;48.682;9.024;2022-10-16T11:46:53;96620.59;;;21.99;62.04
4012;BME280;2020;48.682;9.024;2022-10-16T11:49:25;96620.94;;;22.33;60.99
4012;BME280;2020;48.682;9.024;2022-10-16T11:52:01;96614.00;;;22.62;55.27
4012;BME280;2020;48.682;9.024;2022-10-16T11:54:35;96602.47;;;22.69;56.59
4012;BME280;2020;48.682;9.024;2022-10-16T11:57:13;96609.25;;;22.76;56.13
4012;BME280;2020;48.682;9.024;2022-10-16T12:10:32;96612.69;;;22.11;60.09
4012;BME280;2020;48.682;9.024;2022-10-16T12:15:47;96611.16;;;22.03;56.56
4012;BME280;2020;48.682;9.024;2022-10-16T12:18:22;96618.41;;;21.96;54.99
4012;BME280;2020;48.682;9.024;2022-10-16T12:20:55;96611.50;;;21.76;57.01
4012;BME280;2020;48.682;9.024;2022-10-16T12:23:24;96613.84;;;21.84;56.92
4012;BME280;2020;48.682;9.024;2022-10-16T12:25:58;96616.50;;;21.66;55.10
4012;BME280;2020;48.682;9.024;2022-10-16T12:28:32;96623.06;;;22.12;57.24
4012;BME280;2020;48.682;9.024;2022-10-16T12:31:03;96619.94;;;22.46;56.64
4012;BME280;2020;48.682;9.024;2022-10-16T12:33:32;96622.28;;;22.66;54.67
4012;BME280;2020;48.682;9.024;2022-10-16T12:35:59;96621.25;;;22.91;50.56
4012;BME280;2020;48.682;9.024;2022-10-16T12:38:35;96621.38;;;22.96;52.34
4012;BME280;2020;48.682;9.024;2022-10-16T12:43:46;96619.06;;;22.22;53.31
4012;BME280;2020;48.682;9.024;2022-10-16T12:48:40;96620.16;;;22.02;53.57
4012;BME280;2020;48.682;9.024;2022-10-16T12:51:33;96618.72;;;21.87;53.95
4012;BME280;2020;48.682;9.024;2022-10-16T12:54:17;96616.34;;;21.79;56.69
4012;BME280;2020;48.682;9.024;2022-10-16T13:05:38;96629.59;;;21.98;58.73
4012;BME280;2020;48.682;9.024;2022-10-16T13:16:35;96638.13;;;22.00;56.17
4012;BME280;2020;48.682;9.024;2022-10-16T13:19:24;96637.22;;;22.06;56.43
4012;BME280;2020;48.682;9.024;2022-10-16T13:22:00;96635.94;;;22.09;53.43
4012;BME280;2020;48.682;9.024;2022-10-16T13:24:48;96645.06;;;22.43;55.56
4012;BME280;2020;48.682;9.024;2022-10-16T13:27:44;96632.34;;;22.76;54.20
4012;BME280;2020;48.682;9.024;2022-10-16T13:30:20;96643.75;;;23.00;54.05
4012;BME280;2020;48.682;9.024;2022-10-16T13:32:48;96630.94;;;22.73;51.56
4012;BME280;2020;48.682;9.024;2022-10-16T13:35:23;96633.59;;;22.73;53.14
4012;BME280;2020;48.682;9.024;2022-10-16T13:37:49;96637.16;;;22.67;54.54
4012;BME280;2020;48.682;9.024;2022-10-16T13:40:21;96639.94;;;22.72;54.40
4012;BME280;2020;48.682;9.024;2022-10-16T13:42:47;96635.75;;;22.53;53.00
4012;BME280;2020;48.682;9.024;2022-10-16T13:45:39;96634.06;;;22.28;54.54
4012;BME280;2020;48.682;9.024;2022-10-16T13:48:08;96631.91;;;22.06;54.74
4012;BME280;2020;48.682;9.024;2022-10-16T13:50:34;96631.78;;;22.01;57.53
4012;BME280;2020;48.682;9.024;2022-10-16T13:53:07;96626.78;;;21.93;55.67
4012;BME280;2020;48.682;9.024;2022-10-16T13:55:37;96623.25;;;21.80;57.71
4012;BME280;2020;48.682;9.024;2022-10-16T13:58:08;96630.47;;;21.73;57.61
4012;BME280;2020;48.682;9.024;2022-10-16T14:00:34;96632.41;;;21.66;59.77
4012;BME280;2020;48.682;9.024;2022-10-16T14:03:05;96628.72;;;21.67;59.77
4012;BME280;2020;48.682;9.024;2022-10-16T14:05:32;96629.16;;;21.64;57.49
4012;BME280;2020;48.682;9.024;2022-10-16T14:07:58;96636.94;;;21.58;59.85
4012;BME280;2020;48.682;9.024;2022-10-16T14:10:31;96643.84;;;21.59;60.92
4012;BME280;2020;48.682;9.024;2022-10-16T14:13:01;96639.88;;;21.50;57.92
4012;BME280;2020;48.682;9.024;2022-10-16T14:15:28;96646.22;;;21.49;59.52
4012;BME280;2020;48.682;9.024;2022-10-16T14:17:54;96642.53;;;21.50;60.14
4012;BME280;2020;48.682;9.024;2022-10-16T14:20:27;96640.72;;;21.51;59.81
4012;BME280;2020;48.682;9.024;2022-10-16T14:23:05;96633.69;;;21.56;60.00
4012;BME280;2020;48.682;9.024;2022-10-16T14:25:43;96642.47;;;21.57;60.27
4012;BME280;2020;48.682;9.024;2022-10-16T14:28:21;96638.13;;;21.62;59.62
4012;BME280;2020;48.682;9.024;2022-10-16T14:30:54;96645.44;;;21.67;58.21
4012;BME280;2020;48.682;9.024;2022-10-16T14:36:05;96652.63;;;21.79;60.07
4012;BME280;2020;48.682;9.024;2022-10-16T14:38:36;96654.47;;;21.97;57.37
4012;BME280;2020;48.682;9.024;2022-10-16T14:41:03;96642.97;;;22.03;59.37
4012;BME280;2020;48.682;9.024;2022-10-16T14:43:36;96652.53;;;22.04;58.71
4012;BME280;2020;48.682;9.024;2022-10-16T14:46:05;96656.81;;;22.05;55.33
4012;BME280;2020;48.682;9.024;2022-10-16T14:48:32;96658.88;;;22.03;57.05
4012;BME280;2020;48.682;9.024;2022-10-16T14:50:57;96659.53;;;21.98;56.42
4012;BME280;2020;48.682;9.024;2022-10-16T14:53:22;96660.38;;;22.11;57.55
4012;BME280;2020;48.682;9.024;2022-10-16T14:55:48;96652.38;;;22.29;57.59
4012;BME280;2020;48.682;9.024;2022-10-16T14:58:18;96656.31;;;22.27;57.01
4012;BME280;2020;48.682;9.024;2022-10-16T15:00:44;96658.75;;;22.40;56.90
4012;BME280;2020;48.682;9.024;2022-10-16T15:03:10;96655.53;;;22.38;57.70
4012;BME280;2020;48.682;9.024;2022-10-16T15:05:35;96654.94;;;22.36;57.25
4012;BME280;2020;48.682;9.024;2022-10-16T15:08:01;96647.91;;;22.30;57.49
4012;BME280;2020;48.682;9.024;2022-10-16T15:10:27;96649.69;;;22.17;56.37